Wokal Field Glasgow International Airport
KGGW : now visible

Airfield :











YOU CAN JOIN US ON...

 
LOGIN :

Register | Disclaimer

   EN    FR    IT 

 









Legend :    VFR   Marginal VFR   IFR   Intensive IFR   Very Intensive IFR
Visi :
Ceiling :
>= 8 km
>= 3000ft
5 to 8 km
1000 to 3000 ft
1500m to 5 km
500 to 1000 ft
800 to 1500m
200 to 500 ft
< 800m
< 200 ft
Symbols :   Thunderstorms  Fog  Heavy snow  Heavy precipitations  Wind > 20 kt






- Airport Elevation : 2296 ft
- IATA code : GGW


KGGW - Wokal Field Glasgow International

CURRENT METAR :
  • 080714Z AUTO 05011KT 3SM -SN FEW011 BKN030 OVC037 M03/M06 A2977 RMK AO2 SNB0658 P0000 T10281061

EXPIRED METARs :
  • 080653Z AUTO 05012KT 9SM SCT012 BKN024 OVC049 M03/M06 A2977 RMK AO2 SNE43 SLP104 P0000 T10281061 400831033
  • 080553Z AUTO 04010KT 7SM -SN OVC011 M02/M05 A2977 RMK AO2 SNB50 SLP104 P0000 60000 T10171050 10050 21017 51023
  • 080538Z AUTO 03010KT 10SM BKN011 OVC023 M01/M04 A2977 RMK AO2 T10111044
  • 080508Z AUTO 03008KT 10SM SCT009 BKN022 OVC090 M01/M04 A2975 RMK AO2 T10061039
  • 080501Z AUTO 01010KT 10SM BKN009 BKN080 OVC100 M01/M04 A2974 RMK AO2 T10061039
  • 080453Z AUTO 01009KT 10SM SCT009 OVC080 M01/M03 A2973 RMK AO2 SLP094 T10061033

TAF KGGW
Valid from the 08 at 06:00 until the 09 at 06:00 UTC


080524Z 0806/0906 03011KT P6SM -FZDZSN OVC010
FM080700 03016KT 2SM -SN OVC004
FM081100 04022G29KT 1SM -SN BLSN OVC009
FM081500 03022G32KT 1/2SM SN BLSN OVC009
TEMPO 0817/0819 1/4SM +SN BLSN
FM082200 36010KT 1 1/2SM -SN OVC010



MET'MAP, your aeronautical weather chart ! - Copyright ORBIFLY December 2007 - Disclaimer

ORBIFLY MET'MAP TEAM :

Programming & Development : Alexandra Zaïnal
Concept & original design : Baudouin d'Aumeries
Assistance for programming : Marc-Olivier Méhu
Technical & hardware support : Manuel Goepfert

Contact : metmap@orbifly.com




SOURCES & CREDITS :

   NOAA       Earth
Advisory